createdAt,value
2023-04-16T00:02:58.493Z,9.18
2023-04-16T00:23:01.190Z,9.50
2023-04-16T00:43:03.810Z,9.52
2023-04-16T01:03:06.543Z,9.13
2023-04-16T01:23:09.368Z,8.86
2023-04-16T01:43:12.022Z,8.48
2023-04-16T02:03:14.754Z,8.07
2023-04-16T02:23:17.527Z,8.15
2023-04-16T02:43:20.115Z,8.48
2023-04-16T03:03:22.816Z,8.73
2023-04-16T03:23:25.645Z,7.93
2023-04-16T03:43:28.878Z,7.68
2023-04-16T04:03:31.675Z,8.77
2023-04-16T04:23:34.553Z,8.76
2023-04-16T04:43:37.175Z,9.02
2023-04-16T05:03:39.858Z,9.33
2023-04-16T05:23:42.510Z,10.06
2023-04-16T05:43:45.173Z,9.95
2023-04-16T06:03:47.971Z,10.60
2023-04-16T06:23:50.649Z,11.42
2023-04-16T06:43:53.397Z,13.16
2023-04-16T07:03:56.184Z,14.23
2023-04-16T07:23:58.962Z,14.76
2023-04-16T07:44:02.200Z,15.08
2023-04-16T08:04:04.907Z,15.22
2023-04-16T08:24:07.704Z,16.29
2023-04-16T08:44:10.430Z,16.92
2023-04-16T09:04:13.228Z,17.54
2023-04-16T09:24:16.432Z,19.61
2023-04-16T09:44:19.064Z,18.08
2023-04-16T10:04:23.618Z,17.89
2023-04-16T10:24:26.907Z,17.89
2023-04-16T10:44:29.530Z,16.91
2023-04-16T11:04:32.483Z,17.56
2023-04-16T11:24:35.580Z,19.02
2023-04-16T11:44:38.309Z,16.63
2023-04-16T12:04:40.945Z,17.28
2023-04-16T12:24:43.601Z,17.44
2023-04-16T12:44:46.240Z,18.98
2023-04-16T13:04:48.923Z,19.89
2023-04-16T13:24:51.548Z,20.35
2023-04-16T13:44:56.277Z,18.44
2023-04-16T14:04:58.928Z,18.40
2023-04-16T14:25:02.303Z,18.69
2023-04-16T14:45:07.680Z,18.89
2023-04-16T15:05:11.822Z,18.64
2023-04-16T15:25:14.642Z,18.98
2023-04-16T15:45:17.304Z,17.84
2023-04-16T16:05:20.049Z,17.97
2023-04-16T16:25:22.763Z,18.01
2023-04-16T16:45:27.459Z,18.08
2023-04-16T17:05:30.162Z,17.80
2023-04-16T17:25:32.779Z,17.19
2023-04-16T17:45:35.481Z,16.99
2023-04-16T18:05:38.152Z,16.02
2023-04-16T18:25:40.974Z,15.58
2023-04-16T18:45:43.707Z,14.96
2023-04-16T19:05:46.968Z,14.48
2023-04-16T19:25:49.938Z,14.05
2023-04-16T19:45:54.890Z,13.66
2023-04-16T20:05:57.569Z,13.46
2023-04-16T20:26:00.353Z,12.49
2023-04-16T20:46:04.286Z,12.16
2023-04-16T21:06:06.936Z,12.17
2023-04-16T21:26:09.542Z,12.01
2023-04-16T21:46:12.427Z,11.74
2023-04-16T22:06:15.615Z,10.84
2023-04-16T22:26:18.231Z,10.76
2023-04-16T22:46:26.133Z,10.20
2023-04-16T23:06:29.233Z,9.96
2023-04-16T23:26:31.960Z,9.81
2023-04-16T23:46:34.585Z,9.99
